RHV weather

Reid-Hillview Airport of Santa Clara County
San Jose, California, United States

Public forecast

Using degrees Fahrenheit for public forecast. Weather courtesy of forecast.io.

Current aviation weather report (METAR) for Reid-Hillview Airport of Santa Clara County

Report is more than 6 hours old.

Retrieved 2019/10/14 02:47 UTC (9 hours ago):

KRHV 140247Z 27006KT 10SM SKC 17/05 A2986

Closest aviation forecast (TAF) to Reid-Hillview Airport of Santa Clara County

Closest forecast is Norman Y. Mineta San Jose International Airport, 5.5 nm (10.3 km) WNW. Retrieved 2019/10/14 06:30 UTC (5 hours ago):

TAF KSJC 140526Z 1406/1506 27003KT P6SM SKC FM140800 VRB03KT P6SM SKC FM142000 31008KT P6SM SKC FM150500 29003KT P6SM SKC